Flight Track Log - Related Links

Times and Time Zones

All times are in EDT time to prevent confusion due to time zone crossing. See the GGN7280 flight status page for this flight to view local times or setup timezone preferences in your user account.

Time Position Orientation Groundspeed Altitude Reporting Facility
EDT Latitude Longitude Course Direction KTS MPH feet Rate Location/Type
Sun 05:34:01 PM 43.6667 -79.5667 90° East 150 173 1,400  Level Toronto Center
Sun 05:35:01 PM 43.6667 -79.5167 90° East 170 196 3,100 1,650 Climbing Toronto Center
Sun 05:36:01 PM 43.6333 -79.4500 125° Southeast 180 207 4,700 950 Climbing Toronto Center
Sun 05:37:01 PM 43.6000 -79.3833 125° Southeast 230 265 5,000 850 Climbing Toronto Center
Sun 05:38:01 PM 43.5833 -79.3167 109° East 230 265 6,400 1,450 Climbing Toronto Center
Sun 05:39:01 PM 43.5500 -79.2500 125° Southeast 210 242 7,900 1,600 Climbing Toronto Center
Sun 05:40:01 PM 43.5333 -79.1500 103° East 210 242 9,600 1,132 Climbing Toronto Center
Sun 05:41:40 PM 43.5069 -79.0636 113° Southeast 211 243 10,900 700 Climbing Cleveland Center
Sun 05:42:01 PM 43.4833 -79.0167 125° Southeast 240 276 11,000 74 Climbing Toronto Center
Sun 05:43:01 PM 43.4667 -78.9000 101° East 260 299 11,000  Level Toronto Center
Sun 05:44:01 PM 43.4333 -78.8000 115° Southeast 260 299 11,000  Level Toronto Center
Sun 05:45:01 PM 43.4167 -78.7167 105° East 260 299 11,000  Level Toronto Center
Sun 05:46:01 PM 43.3833 -78.6167 115° Southeast 260 299 11,000  Level Toronto Center
Sun 05:46:40 PM 43.3808 -78.5925 98° East 262 302 11,000 -303 Level Cleveland Center
Sun 05:47:40 PM 43.3522 -78.5019 113° Southeast 262 302 10,500 -878 Descending Cleveland Center
Sun 05:48:43 PM 43.3211 -78.3947 112° Southeast 275 316 9,200 -780 Descending Cleveland Center
Sun 05:49:43 PM 43.2942 -78.2958 110° East 257 296 8,900 -843 Descending Cleveland Center
Sun 05:50:44 PM 43.2903 -78.1989 93° East 261 300 7,500 -1,438 Descending Cleveland Center
Sun 05:51:44 PM 43.2511 -78.1292 128° Southeast 251 289 6,000 -1,488 Descending Cleveland Center
Sun 05:52:45 PM 43.1856 -78.0806 152° Southeast 250 288 4,500 -1,086 Descending Cleveland Center
Sun 05:53:40 PM 43.1347 -78.0397 150° Southeast 233 268 3,900 -261 Descending Cleveland Center
Sun 05:54:40 PM 43.0794 -77.9967 150° Southeast 229 264 4,000 -446 Climbing Cleveland Center
Sun 05:55:41 PM 43.0547 -77.9181 113° Southeast 227 261 3,000 -516 Descending Cleveland Center
Sun 05:56:48 PM 43.0425 -77.8361 102° East 185 213 2,900 -397 Descending Cleveland Center
Sun 05:57:42 PM 43.0389 -77.7794 95° East 163 188 2,200 -716 Descending Cleveland Center
Sun 05:58:37 PM 43.0567 -77.7361 61° Northeast 138 159 1,600 -661 Descending Cleveland Center
Sun 05:59:31 PM 43.0811 -77.7094 39° Northeast 126 145 1,000 -667 Descending Cleveland Center

Login

Don't have an account? Register now (free) for customized features, flight alerts, and more!